sensor_id;sensor_type;location;lat;lon;timestamp;temperature;humidity
15328;DHT22;7764;51.430;6.840;2023-05-07T00:00:42;17.20;99.90
15328;DHT22;7764;51.430;6.840;2023-05-07T00:03:09;17.20;99.90
15328;DHT22;7764;51.430;6.840;2023-05-07T00:05:38;17.20;99.90
15328;DHT22;7764;51.430;6.840;2023-05-07T00:08:05;17.20;99.90
15328;DHT22;7764;51.430;6.840;2023-05-07T00:10:32;17.20;99.90
15328;DHT22;7764;51.430;6.840;2023-05-07T00:12:59;17.20;99.90
15328;DHT22;7764;51.430;6.840;2023-05-07T00:15:25;17.20;99.90
15328;DHT22;7764;51.430;6.840;2023-05-07T00:17:53;17.10;99.90
15328;DHT22;7764;51.430;6.840;2023-05-07T00:20:20;17.10;99.90
15328;DHT22;7764;51.430;6.840;2023-05-07T00:22:48;17.00;99.90
15328;DHT22;7764;51.430;6.840;2023-05-07T00:25:15;16.90;99.90
15328;DHT22;7764;51.430;6.840;2023-05-07T00:27:42;16.90;99.90
15328;DHT22;7764;51.430;6.840;2023-05-07T00:30:10;16.90;99.90
15328;DHT22;7764;51.430;6.840;2023-05-07T00:32:37;16.90;99.90
15328;DHT22;7764;51.430;6.840;2023-05-07T00:35:05;16.90;99.90
15328;DHT22;7764;51.430;6.840;2023-05-07T00:37:32;16.90;99.90
15328;DHT22;7764;51.430;6.840;2023-05-07T00:40:00;16.90;99.90
15328;DHT22;7764;51.430;6.840;2023-05-07T00:42:30;16.90;99.90
15328;DHT22;7764;51.430;6.840;2023-05-07T00:44:57;16.80;99.90
15328;DHT22;7764;51.430;6.840;2023-05-07T00:47:25;16.80;99.90
15328;DHT22;7764;51.430;6.840;2023-05-07T00:49:52;16.70;99.90
15328;DHT22;7764;51.430;6.840;2023-05-07T00:52:20;16.70;99.90
15328;DHT22;7764;51.430;6.840;2023-05-07T00:54:48;16.70;99.90
15328;DHT22;7764;51.430;6.840;2023-05-07T00:57:16;16.60;99.90
15328;DHT22;7764;51.430;6.840;2023-05-07T00:59:43;16.50;99.90
15328;DHT22;7764;51.430;6.840;2023-05-07T01:02:10;16.50;99.90
15328;DHT22;7764;51.430;6.840;2023-05-07T01:04:37;16.50;99.90
15328;DHT22;7764;51.430;6.840;2023-05-07T01:07:05;16.40;99.90
15328;DHT22;7764;51.430;6.840;2023-05-07T01:09:32;16.50;99.90
15328;DHT22;7764;51.430;6.840;2023-05-07T01:12:00;16.50;99.90
15328;DHT22;7764;51.430;6.840;2023-05-07T01:14:29;16.40;99.90
15328;DHT22;7764;51.430;6.840;2023-05-07T01:16:56;16.40;99.90
15328;DHT22;7764;51.430;6.840;2023-05-07T01:19:24;16.40;99.90
15328;DHT22;7764;51.430;6.840;2023-05-07T01:21:51;16.40;99.90
15328;DHT22;7764;51.430;6.840;2023-05-07T01:24:22;16.50;99.90
15328;DHT22;7764;51.430;6.840;2023-05-07T01:26:49;16.50;99.90
15328;DHT22;7764;51.430;6.840;2023-05-07T01:29:16;16.40;99.90
15328;DHT22;7764;51.430;6.840;2023-05-07T01:31:43;16.50;99.90
15328;DHT22;7764;51.430;6.840;2023-05-07T01:34:12;16.40;99.90
15328;DHT22;7764;51.430;6.840;2023-05-07T01:36:40;16.30;99.90
15328;DHT22;7764;51.430;6.840;2023-05-07T01:39:08;16.30;99.90
15328;DHT22;7764;51.430;6.840;2023-05-07T01:41:37;16.30;99.90
15328;DHT22;7764;51.430;6.840;2023-05-07T01:44:05;16.20;99.90
15328;DHT22;7764;51.430;6.840;2023-05-07T01:46:32;16.20;99.90
15328;DHT22;7764;51.430;6.840;2023-05-07T01:48:59;16.20;99.90
15328;DHT22;7764;51.430;6.840;2023-05-07T01:51:26;16.20;99.90
15328;DHT22;7764;51.430;6.840;2023-05-07T01:53:53;16.10;99.90
15328;DHT22;7764;51.430;6.840;2023-05-07T01:56:21;16.10;99.90
15328;DHT22;7764;51.430;6.840;2023-05-07T01:58:49;16.10;99.90
15328;DHT22;7764;51.430;6.840;2023-05-07T02:01:17;16.10;99.90
15328;DHT22;7764;51.430;6.840;2023-05-07T02:03:44;16.10;99.90
15328;DHT22;7764;51.430;6.840;2023-05-07T02:06:11;16.10;99.90
15328;DHT22;7764;51.430;6.840;2023-05-07T02:08:38;16.10;99.90
15328;DHT22;7764;51.430;6.840;2023-05-07T02:11:04;16.10;99.90
15328;DHT22;7764;51.430;6.840;2023-05-07T02:13:33;16.00;99.90
15328;DHT22;7764;51.430;6.840;2023-05-07T02:16:02;16.00;99.90
15328;DHT22;7764;51.430;6.840;2023-05-07T02:18:29;16.10;99.90
15328;DHT22;7764;51.430;6.840;2023-05-07T02:20:56;16.00;99.90
15328;DHT22;7764;51.430;6.840;2023-05-07T02:23:22;16.00;99.90
15328;DHT22;7764;51.430;6.840;2023-05-07T02:25:50;16.00;99.90
15328;DHT22;7764;51.430;6.840;2023-05-07T02:28:17;16.00;99.90
15328;DHT22;7764;51.430;6.840;2023-05-07T02:30:44;16.00;99.90
15328;DHT22;7764;51.430;6.840;2023-05-07T02:33:12;16.00;99.90
15328;DHT22;7764;51.430;6.840;2023-05-07T02:35:39;16.00;99.90
15328;DHT22;7764;51.430;6.840;2023-05-07T02:38:06;16.00;99.90
15328;DHT22;7764;51.430;6.840;2023-05-07T02:40:36;16.00;99.90
15328;DHT22;7764;51.430;6.840;2023-05-07T02:43:04;16.00;99.90
15328;DHT22;7764;51.430;6.840;2023-05-07T02:45:31;16.00;99.90
15328;DHT22;7764;51.430;6.840;2023-05-07T02:47:58;16.00;99.90
15328;DHT22;7764;51.430;6.840;2023-05-07T02:50:26;16.00;99.90
15328;DHT22;7764;51.430;6.840;2023-05-07T02:52:53;16.00;99.90
15328;DHT22;7764;51.430;6.840;2023-05-07T02:55:20;16.00;99.90
15328;DHT22;7764;51.430;6.840;2023-05-07T02:57:46;16.00;99.90
15328;DHT22;7764;51.430;6.840;2023-05-07T03:00:15;16.00;99.90
15328;DHT22;7764;51.430;6.840;2023-05-07T03:02:42;16.00;99.90
15328;DHT22;7764;51.430;6.840;2023-05-07T03:05:08;16.00;99.90
15328;DHT22;7764;51.430;6.840;2023-05-07T03:07:37;16.00;99.90
15328;DHT22;7764;51.430;6.840;2023-05-07T03:10:05;16.00;99.90
15328;DHT22;7764;51.430;6.840;2023-05-07T03:12:32;16.00;99.90
15328;DHT22;7764;51.430;6.840;2023-05-07T03:14:58;16.00;99.90
15328;DHT22;7764;51.430;6.840;2023-05-07T03:17:25;16.00;99.90
15328;DHT22;7764;51.430;6.840;2023-05-07T03:19:52;16.10;99.90
15328;DHT22;7764;51.430;6.840;2023-05-07T03:22:19;16.10;99.90
15328;DHT22;7764;51.430;6.840;2023-05-07T03:24:47;16.00;99.90
15328;DHT22;7764;51.430;6.840;2023-05-07T03:27:14;16.00;99.90
15328;DHT22;7764;51.430;6.840;2023-05-07T03:29:41;16.00;99.90
15328;DHT22;7764;51.430;6.840;2023-05-07T03:32:07;16.00;99.90
15328;DHT22;7764;51.430;6.840;2023-05-07T03:34:34;16.00;99.90
15328;DHT22;7764;51.430;6.840;2023-05-07T03:37:01;16.00;99.90
15328;DHT22;7764;51.430;6.840;2023-05-07T03:39:28;15.90;99.90
15328;DHT22;7764;51.430;6.840;2023-05-07T03:41:57;15.90;99.90
15328;DHT22;7764;51.430;6.840;2023-05-07T03:44:24;16.00;99.90
15328;DHT22;7764;51.430;6.840;2023-05-07T03:46:51;15.90;99.90
15328;DHT22;7764;51.430;6.840;2023-05-07T03:49:18;15.90;99.90
15328;DHT22;7764;51.430;6.840;2023-05-07T03:51:44;15.90;99.90
15328;DHT22;7764;51.430;6.840;2023-05-07T03:54:11;15.90;99.90
15328;DHT22;7764;51.430;6.840;2023-05-07T03:56:38;15.90;99.90
15328;DHT22;7764;51.430;6.840;2023-05-07T03:59:07;15.90;99.90
15328;DHT22;7764;51.430;6.840;2023-05-07T04:01:34;15.90;99.90
15328;DHT22;7764;51.430;6.840;2023-05-07T04:04:01;16.00;99.90
15328;DHT22;7764;51.430;6.840;2023-05-07T04:06:28;15.90;99.90
15328;DHT22;7764;51.430;6.840;2023-05-07T04:08:55;15.90;99.90
15328;DHT22;7764;51.430;6.840;2023-05-07T04:11:22;15.80;99.90
15328;DHT22;7764;51.430;6.840;2023-05-07T04:13:49;15.80;99.90
15328;DHT22;7764;51.430;6.840;2023-05-07T04:16:17;15.70;99.90
15328;DHT22;7764;51.430;6.840;2023-05-07T04:18:44;15.70;99.90
15328;DHT22;7764;51.430;6.840;2023-05-07T04:21:14;15.70;99.90
15328;DHT22;7764;51.430;6.840;2023-05-07T04:23:42;15.70;99.90
15328;DHT22;7764;51.430;6.840;2023-05-07T04:26:09;15.80;99.90
15328;DHT22;7764;51.430;6.840;2023-05-07T04:28:36;15.80;99.90
15328;DHT22;7764;51.430;6.840;2023-05-07T04:31:03;15.80;99.90
15328;DHT22;7764;51.430;6.840;2023-05-07T04:33:31;15.80;99.90
15328;DHT22;7764;51.430;6.840;2023-05-07T04:35:58;15.80;99.90
15328;DHT22;7764;51.430;6.840;2023-05-07T04:38:28;15.80;99.90
15328;DHT22;7764;51.430;6.840;2023-05-07T04:40:55;15.80;99.90
15328;DHT22;7764;51.430;6.840;2023-05-07T04:43:22;15.80;99.90
15328;DHT22;7764;51.430;6.840;2023-05-07T04:45:50;15.80;99.90
15328;DHT22;7764;51.430;6.840;2023-05-07T04:48:16;15.80;99.90
15328;DHT22;7764;51.430;6.840;2023-05-07T04:50:47;15.80;99.90
15328;DHT22;7764;51.430;6.840;2023-05-07T04:53:14;15.80;99.90
15328;DHT22;7764;51.430;6.840;2023-05-07T04:55:41;15.90;99.90
15328;DHT22;7764;51.430;6.840;2023-05-07T04:58:09;16.00;99.90
15328;DHT22;7764;51.430;6.840;2023-05-07T05:00:36;16.00;99.90
15328;DHT22;7764;51.430;6.840;2023-05-07T05:03:03;16.10;99.90
15328;DHT22;7764;51.430;6.840;2023-05-07T05:05:30;16.10;99.90
15328;DHT22;7764;51.430;6.840;2023-05-07T05:07:58;16.10;99.90
15328;DHT22;7764;51.430;6.840;2023-05-07T05:10:25;16.10;99.90
15328;DHT22;7764;51.430;6.840;2023-05-07T05:12:52;16.10;99.90
15328;DHT22;7764;51.430;6.840;2023-05-07T05:15:19;16.20;99.90
15328;DHT22;7764;51.430;6.840;2023-05-07T05:17:45;16.20;99.90
15328;DHT22;7764;51.430;6.840;2023-05-07T05:20:12;16.20;99.90
15328;DHT22;7764;51.430;6.840;2023-05-07T05:22:40;16.20;99.90
15328;DHT22;7764;51.430;6.840;2023-05-07T05:25:09;16.20;99.90
15328;DHT22;7764;51.430;6.840;2023-05-07T05:27:36;16.20;99.90
15328;DHT22;7764;51.430;6.840;2023-05-07T05:30:04;16.30;99.90
15328;DHT22;7764;51.430;6.840;2023-05-07T05:32:31;16.40;99.90
15328;DHT22;7764;51.430;6.840;2023-05-07T05:34:57;16.40;99.90
15328;DHT22;7764;51.430;6.840;2023-05-07T05:37:25;16.40;99.90
15328;DHT22;7764;51.430;6.840;2023-05-07T05:39:52;16.50;99.90
15328;DHT22;7764;51.430;6.840;2023-05-07T05:42:21;16.60;99.90
15328;DHT22;7764;51.430;6.840;2023-05-07T05:44:48;16.60;99.90
15328;DHT22;7764;51.430;6.840;2023-05-07T05:47:15;16.70;99.90
15328;DHT22;7764;51.430;6.840;2023-05-07T05:49:42;16.80;99.90
15328;DHT22;7764;51.430;6.840;2023-05-07T05:52:09;17.00;99.90
15328;DHT22;7764;51.430;6.840;2023-05-07T05:54:36;17.10;99.90
15328;DHT22;7764;51.430;6.840;2023-05-07T05:57:04;17.30;99.90
15328;DHT22;7764;51.430;6.840;2023-05-07T05:59:32;17.20;99.90
15328;DHT22;7764;51.430;6.840;2023-05-07T06:01:59;17.20;99.90
15328;DHT22;7764;51.430;6.840;2023-05-07T06:04:26;17.40;99.90
15328;DHT22;7764;51.430;6.840;2023-05-07T06:06:53;17.40;99.90
15328;DHT22;7764;51.430;6.840;2023-05-07T06:09:20;17.50;99.90
15328;DHT22;7764;51.430;6.840;2023-05-07T06:11:46;17.70;99.90
15328;DHT22;7764;51.430;6.840;2023-05-07T06:14:13;17.60;99.90
15328;DHT22;7764;51.430;6.840;2023-05-07T06:16:41;17.60;99.90
15328;DHT22;7764;51.430;6.840;2023-05-07T06:19:08;17.80;99.90
15328;DHT22;7764;51.430;6.840;2023-05-07T06:21:35;17.90;99.90
15328;DHT22;7764;51.430;6.840;2023-05-07T06:24:02;18.00;99.90
15328;DHT22;7764;51.430;6.840;2023-05-07T06:26:29;18.10;99.90
15328;DHT22;7764;51.430;6.840;2023-05-07T06:28:56;18.00;99.90
15328;DHT22;7764;51.430;6.840;2023-05-07T06:31:22;18.10;99.90
15328;DHT22;7764;51.430;6.840;2023-05-07T06:33:51;17.90;99.90
15328;DHT22;7764;51.430;6.840;2023-05-07T06:36:17;18.00;99.90
15328;DHT22;7764;51.430;6.840;2023-05-07T06:38:44;17.90;99.90
15328;DHT22;7764;51.430;6.840;2023-05-07T06:41:11;17.90;99.90
15328;DHT22;7764;51.430;6.840;2023-05-07T06:43:38;17.80;99.90
15328;DHT22;7764;51.430;6.840;2023-05-07T06:46:05;17.80;99.90
15328;DHT22;7764;51.430;6.840;2023-05-07T06:48:32;17.90;99.90
15328;DHT22;7764;51.430;6.840;2023-05-07T06:51:03;17.90;99.90
15328;DHT22;7764;51.430;6.840;2023-05-07T06:53:29;18.00;99.90
15328;DHT22;7764;51.430;6.840;2023-05-07T06:55:56;18.00;99.90
15328;DHT22;7764;51.430;6.840;2023-05-07T06:58:23;18.10;99.90
15328;DHT22;7764;51.430;6.840;2023-05-07T07:00:50;18.20;99.90
15328;DHT22;7764;51.430;6.840;2023-05-07T07:03:17;18.30;99.90
15328;DHT22;7764;51.430;6.840;2023-05-07T07:05:44;18.30;99.90
15328;DHT22;7764;51.430;6.840;2023-05-07T07:08:12;18.40;99.90
15328;DHT22;7764;51.430;6.840;2023-05-07T07:10:39;18.40;99.90
15328;DHT22;7764;51.430;6.840;2023-05-07T07:13:05;18.40;99.90
15328;DHT22;7764;51.430;6.840;2023-05-07T07:15:32;18.60;99.90
15328;DHT22;7764;51.430;6.840;2023-05-07T07:17:59;18.60;99.90
15328;DHT22;7764;51.430;6.840;2023-05-07T07:20:26;18.60;99.90
15328;DHT22;7764;51.430;6.840;2023-05-07T07:22:53;18.60;99.90
15328;DHT22;7764;51.430;6.840;2023-05-07T07:25:21;18.70;99.90
15328;DHT22;7764;51.430;6.840;2023-05-07T07:27:49;18.60;99.90
15328;DHT22;7764;51.430;6.840;2023-05-07T07:30:16;18.60;99.90
15328;DHT22;7764;51.430;6.840;2023-05-07T07:32:42;18.70;99.90
15328;DHT22;7764;51.430;6.840;2023-05-07T07:35:09;18.90;99.90
15328;DHT22;7764;51.430;6.840;2023-05-07T07:37:36;19.00;99.90
15328;DHT22;7764;51.430;6.840;2023-05-07T07:40:04;19.10;99.90
15328;DHT22;7764;51.430;6.840;2023-05-07T07:42:32;19.20;99.90
15328;DHT22;7764;51.430;6.840;2023-05-07T07:44:59;19.30;99.90
15328;DHT22;7764;51.430;6.840;2023-05-07T07:47:26;19.20;99.90
15328;DHT22;7764;51.430;6.840;2023-05-07T07:49:52;19.30;99.90
15328;DHT22;7764;51.430;6.840;2023-05-07T07:52:19;19.40;99.90
15328;DHT22;7764;51.430;6.840;2023-05-07T07:54:46;19.70;99.90
15328;DHT22;7764;51.430;6.840;2023-05-07T07:57:13;20.00;99.90
15328;DHT22;7764;51.430;6.840;2023-05-07T07:59:41;20.60;99.90
15328;DHT22;7764;51.430;6.840;2023-05-07T08:02:08;20.80;99.90
15328;DHT22;7764;51.430;6.840;2023-05-07T08:04:35;20.50;99.90
15328;DHT22;7764;51.430;6.840;2023-05-07T08:07:03;20.40;99.90
15328;DHT22;7764;51.430;6.840;2023-05-07T08:09:29;20.50;99.90
15328;DHT22;7764;51.430;6.840;2023-05-07T08:11:56;20.50;99.90
15328;DHT22;7764;51.430;6.840;2023-05-07T08:14:23;20.70;99.90
15328;DHT22;7764;51.430;6.840;2023-05-07T08:16:52;20.60;99.90
15328;DHT22;7764;51.430;6.840;2023-05-07T08:19:19;20.80;99.90
15328;DHT22;7764;51.430;6.840;2023-05-07T08:21:47;20.90;99.90
15328;DHT22;7764;51.430;6.840;2023-05-07T08:24:14;21.10;99.90
15328;DHT22;7764;51.430;6.840;2023-05-07T08:26:41;21.00;99.90
15328;DHT22;7764;51.430;6.840;2023-05-07T08:29:08;21.10;99.90
15328;DHT22;7764;51.430;6.840;2023-05-07T08:31:35;20.90;99.90
15328;DHT22;7764;51.430;6.840;2023-05-07T08:34:03;21.00;99.90
15328;DHT22;7764;51.430;6.840;2023-05-07T08:36:30;21.00;99.90
15328;DHT22;7764;51.430;6.840;2023-05-07T08:38:57;21.10;99.90
15328;DHT22;7764;51.430;6.840;2023-05-07T08:41:24;21.20;99.90
15328;DHT22;7764;51.430;6.840;2023-05-07T08:43:51;21.40;99.90
15328;DHT22;7764;51.430;6.840;2023-05-07T08:46:19;21.40;99.90
15328;DHT22;7764;51.430;6.840;2023-05-07T08:48:48;21.60;99.90
15328;DHT22;7764;51.430;6.840;2023-05-07T08:51:18;21.50;99.90
15328;DHT22;7764;51.430;6.840;2023-05-07T08:53:46;21.50;99.90
15328;DHT22;7764;51.430;6.840;2023-05-07T08:56:14;21.80;99.90
15328;DHT22;7764;51.430;6.840;2023-05-07T08:58:41;22.10;99.90
15328;DHT22;7764;51.430;6.840;2023-05-07T09:01:09;22.10;99.90
15328;DHT22;7764;51.430;6.840;2023-05-07T09:03:37;22.30;99.90
15328;DHT22;7764;51.430;6.840;2023-05-07T09:06:05;22.30;99.90
15328;DHT22;7764;51.430;6.840;2023-05-07T09:08:34;22.40;99.90
15328;DHT22;7764;51.430;6.840;2023-05-07T09:11:01;22.60;99.90
15328;DHT22;7764;51.430;6.840;2023-05-07T09:13:29;22.40;99.90
15328;DHT22;7764;51.430;6.840;2023-05-07T09:15:56;22.80;99.90
15328;DHT22;7764;51.430;6.840;2023-05-07T09:18:23;23.00;99.90
15328;DHT22;7764;51.430;6.840;2023-05-07T09:20:50;22.90;99.90
15328;DHT22;7764;51.430;6.840;2023-05-07T09:23:17;22.80;99.90
15328;DHT22;7764;51.430;6.840;2023-05-07T09:25:45;23.00;99.90
15328;DHT22;7764;51.430;6.840;2023-05-07T09:28:12;23.20;99.90
15328;DHT22;7764;51.430;6.840;2023-05-07T09:30:39;23.00;99.90
15328;DHT22;7764;51.430;6.840;2023-05-07T09:33:06;23.00;99.90
15328;DHT22;7764;51.430;6.840;2023-05-07T09:35:33;23.20;99.90
15328;DHT22;7764;51.430;6.840;2023-05-07T09:38:01;23.10;99.90
15328;DHT22;7764;51.430;6.840;2023-05-07T09:40:29;23.40;99.90
15328;DHT22;7764;51.430;6.840;2023-05-07T09:43:08;23.20;99.90
15328;DHT22;7764;51.430;6.840;2023-05-07T09:45:36;23.10;99.90
15328;DHT22;7764;51.430;6.840;2023-05-07T09:48:05;23.00;99.90
15328;DHT22;7764;51.430;6.840;2023-05-07T09:50:36;23.00;99.90
15328;DHT22;7764;51.430;6.840;2023-05-07T09:53:03;23.00;99.90
15328;DHT22;7764;51.430;6.840;2023-05-07T09:55:31;22.80;99.90
15328;DHT22;7764;51.430;6.840;2023-05-07T09:57:59;22.90;99.90
15328;DHT22;7764;51.430;6.840;2023-05-07T10:00:29;23.10;99.90
15328;DHT22;7764;51.430;6.840;2023-05-07T10:02:57;23.10;99.90
15328;DHT22;7764;51.430;6.840;2023-05-07T10:05:25;23.10;99.90
15328;DHT22;7764;51.430;6.840;2023-05-07T10:07:53;23.30;99.90
15328;DHT22;7764;51.430;6.840;2023-05-07T10:10:21;23.10;99.90
15328;DHT22;7764;51.430;6.840;2023-05-07T10:12:48;23.20;99.90
15328;DHT22;7764;51.430;6.840;2023-05-07T10:15:17;23.20;99.90
15328;DHT22;7764;51.430;6.840;2023-05-07T10:17:45;23.00;99.90
15328;DHT22;7764;51.430;6.840;2023-05-07T10:20:12;23.40;99.90
15328;DHT22;7764;51.430;6.840;2023-05-07T10:22:41;23.40;99.90
15328;DHT22;7764;51.430;6.840;2023-05-07T10:25:14;23.60;99.90
15328;DHT22;7764;51.430;6.840;2023-05-07T10:27:43;23.30;99.90
15328;DHT22;7764;51.430;6.840;2023-05-07T10:30:22;23.30;99.90
15328;DHT22;7764;51.430;6.840;2023-05-07T10:32:55;23.60;99.90
15328;DHT22;7764;51.430;6.840;2023-05-07T10:35:25;23.60;99.90
15328;DHT22;7764;51.430;6.840;2023-05-07T10:37:52;23.70;99.90
15328;DHT22;7764;51.430;6.840;2023-05-07T10:40:20;23.50;99.90
15328;DHT22;7764;51.430;6.840;2023-05-07T10:42:55;23.80;99.90
15328;DHT22;7764;51.430;6.840;2023-05-07T10:45:24;24.00;99.90
15328;DHT22;7764;51.430;6.840;2023-05-07T10:48:08;23.90;99.90
15328;DHT22;7764;51.430;6.840;2023-05-07T10:50:35;23.90;99.90
15328;DHT22;7764;51.430;6.840;2023-05-07T10:53:22;23.90;99.90
15328;DHT22;7764;51.430;6.840;2023-05-07T10:56:23;24.00;99.90
15328;DHT22;7764;51.430;6.840;2023-05-07T10:58:39;24.10;99.90
15328;DHT22;7764;51.430;6.840;2023-05-07T11:01:07;24.20;99.90
15328;DHT22;7764;51.430;6.840;2023-05-07T11:03:35;24.20;99.90
15328;DHT22;7764;51.430;6.840;2023-05-07T11:06:09;24.20;99.90
15328;DHT22;7764;51.430;6.840;2023-05-07T11:09:04;24.20;99.90
15328;DHT22;7764;51.430;6.840;2023-05-07T11:11:44;24.00;99.90
15328;DHT22;7764;51.430;6.840;2023-05-07T11:14:11;24.20;99.90
15328;DHT22;7764;51.430;6.840;2023-05-07T11:16:41;24.30;99.90
15328;DHT22;7764;51.430;6.840;2023-05-07T11:19:08;24.20;99.90
15328;DHT22;7764;51.430;6.840;2023-05-07T11:21:36;24.20;99.90
15328;DHT22;7764;51.430;6.840;2023-05-07T11:24:04;24.40;99.90
15328;DHT22;7764;51.430;6.840;2023-05-07T11:26:42;24.00;99.90
15328;DHT22;7764;51.430;6.840;2023-05-07T11:29:14;23.80;99.90
15328;DHT22;7764;51.430;6.840;2023-05-07T11:31:43;23.90;99.90
15328;DHT22;7764;51.430;6.840;2023-05-07T11:34:11;24.00;99.90
15328;DHT22;7764;51.430;6.840;2023-05-07T11:36:42;24.00;99.90
15328;DHT22;7764;51.430;6.840;2023-05-07T11:39:29;24.00;99.90
15328;DHT22;7764;51.430;6.840;2023-05-07T11:41:57;23.90;99.90
15328;DHT22;7764;51.430;6.840;2023-05-07T11:44:24;23.80;99.90
15328;DHT22;7764;51.430;6.840;2023-05-07T11:46:52;23.90;99.90
15328;DHT22;7764;51.430;6.840;2023-05-07T11:49:19;23.80;99.90
15328;DHT22;7764;51.430;6.840;2023-05-07T11:51:46;23.80;99.90
15328;DHT22;7764;51.430;6.840;2023-05-07T11:54:16;23.80;99.90
15328;DHT22;7764;51.430;6.840;2023-05-07T11:56:44;24.00;99.90
15328;DHT22;7764;51.430;6.840;2023-05-07T11:59:16;24.20;99.90
15328;DHT22;7764;51.430;6.840;2023-05-07T12:01:45;24.10;99.90
15328;DHT22;7764;51.430;6.840;2023-05-07T12:04:18;24.10;99.90
15328;DHT22;7764;51.430;6.840;2023-05-07T12:06:45;23.90;99.90
15328;DHT22;7764;51.430;6.840;2023-05-07T12:09:12;24.00;99.90
15328;DHT22;7764;51.430;6.840;2023-05-07T12:11:40;24.00;99.90
15328;DHT22;7764;51.430;6.840;2023-05-07T12:14:06;24.10;99.90
15328;DHT22;7764;51.430;6.840;2023-05-07T12:16:33;24.00;99.90
15328;DHT22;7764;51.430;6.840;2023-05-07T12:19:01;24.10;99.90
15328;DHT22;7764;51.430;6.840;2023-05-07T12:21:29;24.00;99.90
15328;DHT22;7764;51.430;6.840;2023-05-07T12:23:56;23.80;99.90
15328;DHT22;7764;51.430;6.840;2023-05-07T12:26:23;23.70;99.90
15328;DHT22;7764;51.430;6.840;2023-05-07T12:28:50;23.60;99.90
15328;DHT22;7764;51.430;6.840;2023-05-07T12:31:17;23.70;99.90
15328;DHT22;7764;51.430;6.840;2023-05-07T12:33:44;23.80;99.90
15328;DHT22;7764;51.430;6.840;2023-05-07T12:36:12;23.80;99.90
15328;DHT22;7764;51.430;6.840;2023-05-07T12:38:41;23.80;99.90
15328;DHT22;7764;51.430;6.840;2023-05-07T12:41:09;23.70;99.90
15328;DHT22;7764;51.430;6.840;2023-05-07T12:43:36;23.60;99.90
15328;DHT22;7764;51.430;6.840;2023-05-07T12:46:05;23.60;99.90
15328;DHT22;7764;51.430;6.840;2023-05-07T12:48:32;23.60;99.90
15328;DHT22;7764;51.430;6.840;2023-05-07T12:51:00;23.50;99.90
15328;DHT22;7764;51.430;6.840;2023-05-07T12:53:28;23.40;99.90
15328;DHT22;7764;51.430;6.840;2023-05-07T12:55:59;23.40;99.90
15328;DHT22;7764;51.430;6.840;2023-05-07T12:58:27;23.50;99.90
15328;DHT22;7764;51.430;6.840;2023-05-07T13:00:54;23.20;99.90
15328;DHT22;7764;51.430;6.840;2023-05-07T13:03:25;23.20;99.90
15328;DHT22;7764;51.430;6.840;2023-05-07T13:05:52;23.00;99.90
15328;DHT22;7764;51.430;6.840;2023-05-07T13:08:24;22.70;99.90
15328;DHT22;7764;51.430;6.840;2023-05-07T13:10:51;22.30;99.90
15328;DHT22;7764;51.430;6.840;2023-05-07T13:13:20;22.00;99.90
15328;DHT22;7764;51.430;6.840;2023-05-07T13:15:46;21.80;99.90
15328;DHT22;7764;51.430;6.840;2023-05-07T13:18:13;21.60;99.90
15328;DHT22;7764;51.430;6.840;2023-05-07T13:20:40;21.40;99.90
15328;DHT22;7764;51.430;6.840;2023-05-07T13:23:07;20.80;99.90
15328;DHT22;7764;51.430;6.840;2023-05-07T13:25:34;20.10;99.90
15328;DHT22;7764;51.430;6.840;2023-05-07T13:28:01;19.60;99.90
15328;DHT22;7764;51.430;6.840;2023-05-07T13:30:31;19.60;99.90
15328;DHT22;7764;51.430;6.840;2023-05-07T13:32:58;19.60;99.90
15328;DHT22;7764;51.430;6.840;2023-05-07T13:35:24;19.50;99.90
15328;DHT22;7764;51.430;6.840;2023-05-07T13:37:51;19.50;99.90
15328;DHT22;7764;51.430;6.840;2023-05-07T13:40:20;19.50;99.90
15328;DHT22;7764;51.430;6.840;2023-05-07T13:42:47;19.50;99.90
15328;DHT22;7764;51.430;6.840;2023-05-07T13:45:14;19.50;99.90
15328;DHT22;7764;51.430;6.840;2023-05-07T13:47:42;19.40;99.90
15328;DHT22;7764;51.430;6.840;2023-05-07T13:50:10;19.40;99.90
15328;DHT22;7764;51.430;6.840;2023-05-07T13:52:40;19.50;99.90
15328;DHT22;7764;51.430;6.840;2023-05-07T13:55:08;19.50;99.90
15328;DHT22;7764;51.430;6.840;2023-05-07T13:57:35;19.50;99.90
15328;DHT22;7764;51.430;6.840;2023-05-07T14:00:02;19.60;99.90
15328;DHT22;7764;51.430;6.840;2023-05-07T14:02:30;19.60;99.90
15328;DHT22;7764;51.430;6.840;2023-05-07T14:04:58;19.80;99.90
15328;DHT22;7764;51.430;6.840;2023-05-07T14:07:25;19.80;99.90
15328;DHT22;7764;51.430;6.840;2023-05-07T14:09:52;19.80;99.90
15328;DHT22;7764;51.430;6.840;2023-05-07T14:12:19;19.90;99.90
15328;DHT22;7764;51.430;6.840;2023-05-07T14:14:46;19.90;99.90
15328;DHT22;7764;51.430;6.840;2023-05-07T14:17:15;19.90;99.90
15328;DHT22;7764;51.430;6.840;2023-05-07T14:19:42;19.90;99.90
15328;DHT22;7764;51.430;6.840;2023-05-07T14:22:10;19.80;99.90
15328;DHT22;7764;51.430;6.840;2023-05-07T14:24:38;19.90;99.90
15328;DHT22;7764;51.430;6.840;2023-05-07T14:27:05;19.80;99.90
15328;DHT22;7764;51.430;6.840;2023-05-07T14:29:32;19.80;99.90
15328;DHT22;7764;51.430;6.840;2023-05-07T14:32:01;19.80;99.90
15328;DHT22;7764;51.430;6.840;2023-05-07T14:34:27;19.70;99.90
15328;DHT22;7764;51.430;6.840;2023-05-07T14:36:54;19.60;99.90
15328;DHT22;7764;51.430;6.840;2023-05-07T14:39:23;19.70;99.90
15328;DHT22;7764;51.430;6.840;2023-05-07T14:41:50;19.70;99.90
15328;DHT22;7764;51.430;6.840;2023-05-07T14:44:20;19.70;99.90
15328;DHT22;7764;51.430;6.840;2023-05-07T14:46:46;19.70;99.90
15328;DHT22;7764;51.430;6.840;2023-05-07T14:49:14;19.70;99.90
15328;DHT22;7764;51.430;6.840;2023-05-07T14:51:43;19.60;99.90
15328;DHT22;7764;51.430;6.840;2023-05-07T14:54:10;19.60;99.90
15328;DHT22;7764;51.430;6.840;2023-05-07T14:56:38;19.60;99.90
15328;DHT22;7764;51.430;6.840;2023-05-07T14:59:06;19.60;99.90
15328;DHT22;7764;51.430;6.840;2023-05-07T15:01:34;19.60;99.90
15328;DHT22;7764;51.430;6.840;2023-05-07T15:04:02;19.60;99.90
15328;DHT22;7764;51.430;6.840;2023-05-07T15:06:29;19.70;99.90
15328;DHT22;7764;51.430;6.840;2023-05-07T15:08:56;19.60;99.90
15328;DHT22;7764;51.430;6.840;2023-05-07T15:11:23;19.70;99.90
15328;DHT22;7764;51.430;6.840;2023-05-07T15:13:51;19.60;99.90
15328;DHT22;7764;51.430;6.840;2023-05-07T15:16:18;19.70;99.90
15328;DHT22;7764;51.430;6.840;2023-05-07T15:18:45;19.80;99.90
15328;DHT22;7764;51.430;6.840;2023-05-07T15:21:12;19.80;99.90
15328;DHT22;7764;51.430;6.840;2023-05-07T15:23:39;19.70;99.90
15328;DHT22;7764;51.430;6.840;2023-05-07T15:26:07;19.60;99.90
15328;DHT22;7764;51.430;6.840;2023-05-07T15:28:34;19.50;99.90
15328;DHT22;7764;51.430;6.840;2023-05-07T15:31:02;19.50;99.90
15328;DHT22;7764;51.430;6.840;2023-05-07T15:33:30;19.50;99.90
15328;DHT22;7764;51.430;6.840;2023-05-07T15:35:57;19.50;99.90
15328;DHT22;7764;51.430;6.840;2023-05-07T15:38:25;19.40;99.90
15328;DHT22;7764;51.430;6.840;2023-05-07T15:40:51;19.40;99.90
15328;DHT22;7764;51.430;6.840;2023-05-07T15:43:18;19.50;99.90
15328;DHT22;7764;51.430;6.840;2023-05-07T15:45:46;19.50;99.90
15328;DHT22;7764;51.430;6.840;2023-05-07T15:48:14;19.50;99.90